Time;durP1;ratioP1;P1;durP2;ratioP2;P2;SDS_P1;SDS_P2;PMS_P1;PMS_P2;Temp;Humidity;BMP_temperature;BMP_pressure;BME280_temperature;BME280_humidity;BME280_pressure;Samples;Min_cycle;Max_cycle;Signal;HPM_P1;HPM_P2
2022/01/14 00:00:41;;;;;;;27.02;15.68;;;;;;;3.11;80.59;102103.63;5035730;28;20389;-55
2022/01/14 00:03:13;;;;;;;25.60;14.80;;;;;;;3.12;80.21;102100.31;5035803;28;20053;-55
2022/01/14 00:05:42;;;;;;;21.35;15.57;;;;;;;3.11;80.11;102096.88;5035192;28;20408;-55
2022/01/14 00:08:07;;;;;;;23.52;14.88;;;;;;;3.11;79.80;102099.44;5035624;28;20037;-55
2022/01/14 00:10:35;;;;;;;22.63;14.65;;;;;;;3.11;79.51;102091.75;5035106;28;20041;-55
2022/01/14 00:13:09;;;;;;;27.13;15.60;;;;;;;3.12;80.09;102090.06;5017230;28;20030;-55
2022/01/14 00:15:35;;;;;;;26.38;16.30;;;;;;;3.10;80.29;102092.50;5035807;28;20168;-54
2022/01/14 00:18:06;;;;;;;25.85;13.65;;;;;;;3.11;80.33;102089.19;5017734;28;20112;-55
2022/01/14 00:20:33;;;;;;;27.48;16.88;;;;;;;3.11;80.02;102086.63;5017430;28;20033;-54
2022/01/14 00:23:02;;;;;;;26.40;16.02;;;;;;;3.11;80.10;102084.06;5017700;28;20492;-55
2022/01/14 00:33:34;;;;;;;26.98;15.10;;;;;;;3.11;80.04;102088.28;5034986;28;20128;-54
2022/01/14 00:36:05;;;;;;;28.85;17.58;;;;;;;3.09;80.04;102089.81;5001173;28;20034;-54
2022/01/14 00:38:30;;;;;;;25.73;17.08;;;;;;;3.10;80.28;102083.91;5000767;28;20377;-54
2022/01/14 00:41:01;;;;;;;28.65;15.45;;;;;;;3.08;80.29;102076.13;5035061;28;20045;-55
2022/01/14 00:43:29;;;;;;;22.88;15.00;;;;;;;3.10;80.21;102076.22;5000726;28;20496;-55
2022/01/14 00:45:55;;;;;;;24.33;15.07;;;;;;;3.09;80.31;102071.88;5034480;28;20041;-54
2022/01/14 00:48:27;;;;;;;25.45;15.90;;;;;;;3.10;80.41;102073.66;5034412;28;20485;-54
2022/01/14 00:50:52;;;;;;;26.00;15.43;;;;;;;3.09;80.09;102075.34;5034596;28;20113;-55
2022/01/14 00:53:20;;;;;;;21.35;15.18;;;;;;;3.10;79.91;102071.09;5034600;28;20133;-55
2022/01/14 00:55:53;;;;;;;26.88;16.42;;;;;;;3.10;80.27;102064.31;5034926;28;20041;-56
2022/01/14 01:01:05;;;;;;;27.05;15.88;;;;;;;3.11;80.21;102067.78;5034747;28;20033;-55
2022/01/14 01:03:33;;;;;;;25.50;14.73;;;;;;;3.11;80.34;102065.22;5034126;28;20064;-55
2022/01/14 01:06:07;;;;;;;29.90;17.65;;;;;;;3.11;80.39;102062.66;5034085;28;20087;-54
2022/01/14 01:08:34;;;;;;;30.20;16.15;;;;;;;3.10;80.36;102055.72;5034591;28;20042;-54
2022/01/14 01:11:09;;;;;;;25.60;15.35;;;;;;;3.10;80.00;102050.59;5000247;28;20029;-55
2022/01/14 01:13:42;;;;;;;23.98;16.27;;;;;;;3.11;79.88;102053.31;5034497;28;20092;-55
2022/01/14 01:16:08;;;;;;;26.25;15.65;;;;;;;3.11;80.65;102060.09;5016836;28;20091;-54
2022/01/14 01:18:36;;;;;;;23.45;15.55;;;;;;;3.11;80.11;102054.97;5034349;28;20484;-55
2022/01/14 01:21:02;;;;;;;25.75;16.33;;;;;;;3.10;80.20;102050.59;5034421;28;20038;-55
2022/01/14 01:23:28;;;;;;;25.55;16.75;;;;;;;3.10;80.53;102042.91;5016483;28;20041;-54
2022/01/14 01:26:00;;;;;;;26.85;15.98;;;;;;;3.11;80.38;102047.28;5034156;28;20034;-55
2022/01/14 01:28:29;;;;;;;26.50;16.50;;;;;;;3.11;80.70;102047.28;5000124;28;20045;-56
2022/01/14 01:33:28;;;;;;;26.40;16.80;;;;;;;3.11;80.20;102047.28;5016542;28;20566;-55
2022/01/14 01:35:56;;;;;;;28.55;16.77;;;;;;;3.10;80.05;102053.16;5033585;28;20060;-55
2022/01/14 01:38:22;;;;;;;29.35;17.65;;;;;;;3.09;80.14;102046.25;4999739;28;20065;-55
2022/01/14 01:40:54;;;;;;;28.17;16.05;;;;;;;3.08;80.24;102047.03;4999656;28;20120;-55
2022/01/14 01:43:25;;;;;;;25.10;15.95;;;;;;;3.08;80.41;102047.94;5033962;28;20030;-54
2022/01/14 01:45:51;;;;;;;29.42;17.23;;;;;;;3.08;80.23;102041.91;5016563;28;20080;-56
2022/01/14 01:48:19;;;;;;;32.00;15.88;;;;;;;3.09;80.17;102043.69;5033971;28;20391;-55
2022/01/14 01:50:48;;;;;;;30.20;17.35;;;;;;;3.09;80.33;102048.81;5034064;28;20045;-54
2022/01/14 01:53:22;;;;;;;27.55;16.92;;;;;;;3.08;80.35;102044.47;5016100;28;20041;-55
2022/01/14 01:55:50;;;;;;;26.25;17.00;;;;;;;3.07;80.23;102038.47;5033471;28;20076;-55
2022/01/14 01:58:21;;;;;;;28.85;17.08;;;;;;;3.08;80.02;102041.91;5034165;28;20044;-54
2022/01/14 02:00:52;;;;;;;29.83;18.83;;;;;;;3.08;80.03;102037.69;4999412;28;20038;-54
2022/01/14 02:03:21;;;;;;;29.58;17.52;;;;;;;3.07;80.19;102032.41;5015809;28;20049;-55
2022/01/14 02:05:47;;;;;;;26.02;16.75;;;;;;;3.06;80.69;102036.66;5033348;28;20091;-55
2022/01/14 02:08:17;;;;;;;29.85;18.13;;;;;;;3.05;80.15;102028.06;5033512;28;20436;-55
2022/01/14 02:10:48;;;;;;;28.52;16.75;;;;;;;3.05;80.42;102022.94;4999733;28;20045;-55
2022/01/14 02:13:20;;;;;;;34.95;17.45;;;;;;;3.05;80.45;102025.50;4999504;28;20045;-54
2022/01/14 02:16:47;;;;;;;25.00;16.15;;;;;;;3.05;80.33;102020.38;4999146;28;20049;-55
2022/01/14 02:18:41;;;;;;;27.48;15.90;;;;;;;3.05;80.15;102025.50;5021505;28;20132;-55
2022/01/14 02:24:31;;;;;;;27.70;17.77;;;;;;;3.07;80.06;102019.63;5033199;28;20033;-55
2022/01/14 02:26:55;;;;;;;25.33;17.27;;;;;;;3.07;80.11;102015.41;5032603;28;20033;-54
2022/01/14 02:29:23;;;;;;;23.83;16.48;;;;;;;3.07;80.71;102009.38;5033382;28;20377;-54
2022/01/14 02:31:49;;;;;;;32.60;18.10;;;;;;;3.07;80.17;102005.16;4999239;28;20037;-55
2022/01/14 02:34:16;;;;;;;27.80;16.95;;;;;;;3.07;80.64;102005.16;5033095;28;20037;-55
2022/01/14 02:36:43;;;;;;;29.08;15.73;;;;;;;3.07;80.32;101996.56;4999044;28;20045;-55
2022/01/14 02:39:11;;;;;;;28.75;17.35;;;;;;;3.07;80.04;101991.44;4999201;28;20422;-55
2022/01/14 02:41:41;;;;;;;28.70;15.95;;;;;;;3.05;79.94;101994.75;4998998;28;20098;-55
2022/01/14 02:44:11;;;;;;;25.13;15.35;;;;;;;3.05;80.72;101999.88;4999534;28;20041;-55
2022/01/14 02:46:43;;;;;;;26.02;17.42;;;;;;;3.05;79.79;102005.00;5033181;28;20124;-55
2022/01/14 02:49:12;;;;;;;33.30;17.10;;;;;;;3.05;79.68;102001.56;5033345;28;20034;-55
2022/01/14 02:51:46;;;;;;;21.08;15.43;;;;;;;3.05;80.47;102004.13;5032742;28;20037;-55
2022/01/14 02:54:15;;;;;;;24.85;15.70;;;;;;;3.04;79.88;102004.91;5032864;28;20064;-55
2022/01/14 02:56:47;;;;;;;25.73;17.05;;;;;;;3.04;80.50;101999.78;5032862;28;20454;-55
2022/01/14 02:59:16;;;;;;;26.00;18.10;;;;;;;3.03;80.11;101998.91;4998865;28;20036;-55
2022/01/14 03:01:46;;;;;;;24.92;16.13;;;;;;;3.03;79.96;101995.44;5033104;28;20057;-55
2022/01/14 03:04:15;;;;;;;28.45;17.20;;;;;;;3.03;80.52;101998.00;5015466;28;20052;-55
2022/01/14 03:06:47;;;;;;;25.52;16.75;;;;;;;3.03;79.99;101988.66;4998939;28;20095;-55
2022/01/14 03:09:13;;;;;;;25.10;16.27;;;;;;;3.03;80.48;101985.19;5015424;28;20044;-54
2022/01/14 03:11:45;;;;;;;29.20;16.63;;;;;;;3.03;80.20;101988.66;5032775;28;20041;-54
2022/01/14 03:14:21;;;;;;;28.92;16.27;;;;;;;3.02;80.42;101984.31;5015321;28;20034;-55
2022/01/14 03:16:50;;;;;;;26.48;16.88;;;;;;;3.03;79.94;101987.75;5033118;28;20064;-54
2022/01/14 03:19:22;;;;;;;23.70;15.50;;;;;;;3.01;80.20;101990.19;5032870;28;20044;-54
2022/01/14 03:21:50;;;;;;;28.67;16.45;;;;;;;3.01;79.94;101985.06;5033125;28;20485;-55
2022/01/14 03:26:49;;;;;;;28.60;17.92;;;;;;;3.00;80.41;101985.84;5015388;28;20033;-55
2022/01/14 03:29:22;;;;;;;29.13;18.13;;;;;;;2.99;80.46;101978.94;4999854;28;20037;-55
2022/01/14 03:31:50;;;;;;;26.95;16.92;;;;;;;2.99;80.34;101976.38;5036166;28;20069;-55
2022/01/14 03:34:19;;;;;;;27.05;17.23;;;;;;;2.98;79.91;101974.59;5018450;28;20083;-55
2022/01/14 03:36:47;;;;;;;26.52;18.05;;;;;;;3.00;79.99;101979.81;5002073;28;20049;-54
2022/01/14 03:39:22;;;;;;;25.00;16.08;;;;;;;2.98;80.01;101974.59;5018271;28;20045;-55
2022/01/14 03:41:51;;;;;;;28.33;16.92;;;;;;;2.98;79.89;101973.66;5002180;28;20432;-55
2022/01/14 03:44:16;;;;;;;24.45;16.10;;;;;;;2.98;80.20;101974.59;5001793;28;20072;-56
2022/01/14 03:46:42;;;;;;;25.13;16.27;;;;;;;2.98;80.09;101973.66;5036568;28;20079;-55
2022/01/14 03:49:11;;;;;;;29.75;16.77;;;;;;;2.98;80.48;101972.03;5001882;28;20469;-55
2022/01/14 03:51:37;;;;;;;27.38;17.02;;;;;;;2.98;80.56;101971.09;5001885;28;20072;-54
2022/01/14 03:54:03;;;;;;;30.50;17.40;;;;;;;2.97;80.78;101970.22;5035425;28;20461;-55
2022/01/14 03:56:34;;;;;;;30.05;17.00;;;;;;;2.97;80.07;101966.75;5035875;28;20396;-55
2022/01/14 03:59:01;;;;;;;29.90;17.90;;;;;;;2.97;79.90;101966.75;5035359;28;20066;-55
2022/01/14 04:01:29;;;;;;;26.52;16.67;;;;;;;2.96;80.38;101963.31;5035394;28;20044;-55
2022/01/14 04:03:57;;;;;;;27.50;16.27;;;;;;;2.97;80.37;101959.06;5002044;28;20447;-55
2022/01/14 04:06:25;;;;;;;25.85;16.42;;;;;;;2.97;80.62;101956.50;5035871;28;20049;-55
2022/01/14 04:08:50;;;;;;;25.27;16.10;;;;;;;2.97;80.37;101962.53;5018179;28;20034;-55
2022/01/14 04:11:17;;;;;;;29.15;17.98;;;;;;;2.97;80.16;101949.75;5035221;28;20120;-55
2022/01/14 04:13:51;;;;;;;30.02;16.88;;;;;;;2.97;80.35;101948.81;5017279;28;20037;-54
2022/01/14 04:16:19;;;;;;;28.15;18.88;;;;;;;2.98;79.65;101955.75;5035987;28;20030;-55
2022/01/14 04:18:53;;;;;;;32.53;17.92;;;;;;;2.97;80.38;101956.50;5017748;28;20037;-55
2022/01/14 04:21:26;;;;;;;28.95;18.00;;;;;;;2.97;80.33;101953.94;5035300;28;20049;-54
2022/01/14 04:23:54;;;;;;;38.97;17.17;;;;;;;2.97;80.49;101946.25;5001129;28;20037;-55
2022/01/14 04:26:22;;;;;;;25.00;16.23;;;;;;;2.98;80.66;101948.06;5017557;28;20037;-55
2022/01/14 04:28:53;;;;;;;26.25;17.77;;;;;;;2.97;80.09;101939.50;5035092;28;20037;-55
2022/01/14 04:31:22;;;;;;;22.63;15.98;;;;;;;2.98;80.00;101937.81;5000582;28;20121;-54
2022/01/14 04:33:50;;;;;;;29.25;18.48;;;;;;;2.96;80.17;101935.13;5018047;28;20395;-55
2022/01/14 04:36:16;;;;;;;24.63;16.45;;;;;;;2.96;80.40;101937.72;5035005;28;20544;-55
2022/01/14 04:38:41;;;;;;;27.85;18.35;;;;;;;2.97;80.03;101942.06;5034579;28;20099;-55
2022/01/14 04:41:10;;;;;;;27.88;19.75;;;;;;;2.96;80.39;101936.81;5034691;28;20041;-55
2022/01/14 04:43:36;;;;;;;25.20;17.98;;;;;;;2.96;80.29;101936.81;5035362;28;20038;-55
2022/01/14 04:48:42;;;;;;;24.70;17.33;;;;;;;2.96;79.92;101936.81;5017301;28;20043;-55
2022/01/14 04:51:10;;;;;;;27.45;17.17;;;;;;;2.96;80.31;101941.94;5034679;28;20033;-55
2022/01/14 04:53:36;;;;;;;25.75;18.58;;;;;;;2.95;80.20;101935.91;5000640;28;20128;-55
2022/01/14 04:56:06;;;;;;;27.75;17.38;;;;;;;2.96;80.23;101937.72;5017480;28;20045;-55
2022/01/14 04:58:34;;;;;;;30.20;18.65;;;;;;;2.95;80.32;101935.91;5000808;28;20055;-55
2022/01/14 05:01:02;;;;;;;30.00;19.90;;;;;;;2.95;79.70;101925.66;5034800;28;20115;-54
2022/01/14 05:03:31;;;;;;;26.77;19.05;;;;;;;2.95;80.09;101935.03;5000549;28;20041;-55
2022/01/14 05:06:01;;;;;;;28.95;19.58;;;;;;;2.94;79.74;101926.44;5034759;28;20099;-55
2022/01/14 05:08:35;;;;;;;29.08;19.70;;;;;;;2.94;79.85;101929.00;5034189;28;20049;-55
2022/01/14 05:13:50;;;;;;;28.75;19.05;;;;;;;2.91;80.02;101921.06;5016752;28;20037;-55
2022/01/14 05:16:20;;;;;;;33.55;19.77;;;;;;;2.92;80.04;101933.09;5016293;28;20056;-55
2022/01/14 05:18:51;;;;;;;29.77;19.00;;;;;;;2.92;80.15;101933.09;5016827;28;20037;-55
2022/01/14 05:21:20;;;;;;;28.13;19.48;;;;;;;2.92;80.20;101928.00;5000839;28;20043;-55
2022/01/14 05:23:48;;;;;;;26.67;19.95;;;;;;;2.91;80.11;101918.50;5016869;28;20069;-55
2022/01/14 05:26:16;;;;;;;35.80;19.33;;;;;;;2.92;80.29;101928.00;5016664;28;20037;-56
2022/01/14 05:28:45;;;;;;;31.35;20.42;;;;;;;2.92;79.79;101929.66;5033989;28;20037;-55
2022/01/14 05:31:10;;;;;;;28.63;21.65;;;;;;;2.94;80.31;101933.25;5016655;28;20136;-55
2022/01/14 05:33:41;;;;;;;26.08;19.20;;;;;;;2.92;80.16;101938.22;5034167;28;20552;-54
2022/01/14 05:36:07;;;;;;;27.48;17.90;;;;;;;2.92;80.90;101929.66;5034238;28;20041;-55
2022/01/14 05:38:32;;;;;;;31.23;18.38;;;;;;;2.93;80.06;101934.03;5016534;28;20508;-56
2022/01/14 05:41:03;;;;;;;28.80;19.33;;;;;;;2.94;80.05;101928.13;5016252;28;20392;-55
2022/01/14 05:43:34;;;;;;;27.67;19.23;;;;;;;2.94;80.10;101920.44;5016259;28;20038;-54
2022/01/14 05:46:04;;;;;;;28.67;18.30;;;;;;;2.93;80.35;101919.53;5034316;28;20034;-54
2022/01/14 05:48:29;;;;;;;26.73;19.08;;;;;;;2.92;80.75;101912.63;5033955;28;20120;-55
2022/01/14 05:50:57;;;;;;;31.17;19.92;;;;;;;2.91;80.33;101913.38;5033970;28;20171;-55
2022/01/14 05:53:28;;;;;;;27.10;19.58;;;;;;;2.89;80.11;101910.72;5032700;28;20034;-55
2022/01/14 05:55:56;;;;;;;33.58;20.88;;;;;;;2.89;80.12;101915.84;5033809;28;20045;-55
2022/01/14 05:58:22;;;;;;;32.17;20.55;;;;;;;2.89;80.29;101917.50;5016404;28;20130;-54
2022/01/14 06:00:47;;;;;;;31.10;20.13;;;;;;;2.88;80.24;101910.63;5016220;28;20080;-55
2022/01/14 06:03:22;;;;;;;32.95;19.50;;;;;;;2.88;80.36;101911.50;5015859;28;20401;-54
2022/01/14 06:05:51;;;;;;;30.50;19.40;;;;;;;2.89;79.77;101903.03;5033488;28;20033;-54
2022/01/14 06:08:16;;;;;;;28.92;19.42;;;;;;;2.89;80.25;101897.00;4999299;28;20075;-55
2022/01/14 06:10:44;;;;;;;26.73;18.30;;;;;;;2.89;80.32;101905.59;5015697;28;20041;-55
2022/01/14 06:13:12;;;;;;;33.00;21.25;;;;;;;2.88;80.43;101903.81;5033429;28;20037;-54
2022/01/14 06:15:41;;;;;;;28.55;17.63;;;;;;;2.88;80.27;101906.38;5015708;28;20061;-55
2022/01/14 06:18:06;;;;;;;32.13;20.10;;;;;;;2.89;80.34;101915.84;5033058;28;20045;-55
2022/01/14 06:20:32;;;;;;;38.50;18.88;;;;;;;2.88;80.21;101906.38;5032966;28;20574;-55
2022/01/14 06:22:57;;;;;;;30.27;18.50;;;;;;;2.89;79.78;101909.81;5033424;28;20044;-55
2022/01/14 06:25:25;;;;;;;32.05;19.15;;;;;;;2.88;79.67;101896.13;5033111;28;20037;-55
2022/01/14 06:27:54;;;;;;;27.15;19.45;;;;;;;2.89;79.95;101900.47;5015494;28;20117;-56
2022/01/14 06:30:19;;;;;;;30.38;18.30;;;;;;;2.88;79.93;101901.25;5033383;28;20041;-55
2022/01/14 06:32:47;;;;;;;32.60;19.85;;;;;;;2.88;80.24;101896.13;5033167;28;20030;-54
2022/01/14 06:35:17;;;;;;;30.48;18.90;;;;;;;2.87;79.99;101896.03;5033467;28;20037;-55
2022/01/14 06:37:45;;;;;;;33.17;20.45;;;;;;;2.87;80.29;101899.47;4999070;28;20037;-55
2022/01/14 06:40:11;;;;;;;30.65;18.65;;;;;;;2.87;80.30;101893.47;5033274;28;20083;-55
2022/01/14 06:42:37;;;;;;;24.70;17.73;;;;;;;2.86;79.61;101897.69;5033156;28;20041;-55
2022/01/14 06:45:04;;;;;;;30.58;19.15;;;;;;;2.86;80.22;101896.78;5015190;28;20112;-54
2022/01/14 06:47:30;;;;;;;29.13;18.20;;;;;;;2.85;79.69;101890.75;4998735;28;20034;-55
2022/01/14 06:49:55;;;;;;;28.75;19.73;;;;;;;2.85;80.15;101885.66;5032995;28;20052;-55
2022/01/14 06:52:21;;;;;;;27.52;17.20;;;;;;;2.86;80.46;101891.69;5033175;28;20041;-55
2022/01/14 06:54:47;;;;;;;36.17;19.83;;;;;;;2.86;80.13;101891.69;4998636;28;20049;-55
2022/01/14 06:57:13;;;;;;;27.58;19.15;;;;;;;2.86;79.88;101886.56;4999059;28;20496;-55
2022/01/14 06:59:39;;;;;;;28.50;18.70;;;;;;;2.86;79.91;101882.31;5015214;28;20041;-55
2022/01/14 07:02:04;;;;;;;28.38;18.13;;;;;;;2.86;80.18;101874.63;5011836;28;20050;-55
2022/01/14 07:04:33;;;;;;;27.70;18.17;;;;;;;2.86;80.56;101878.88;5014813;28;20050;-55
2022/01/14 07:07:04;;;;;;;32.55;18.08;;;;;;;2.86;80.57;101881.44;5016856;28;20199;-55
2022/01/14 07:09:31;;;;;;;29.25;17.70;;;;;;;2.87;80.53;101885.78;5017038;28;20044;-55
2022/01/14 07:11:59;;;;;;;26.48;18.08;;;;;;;2.87;80.42;101885.78;4999365;28;20045;-55
2022/01/14 07:14:25;;;;;;;29.75;18.75;;;;;;;2.87;79.96;101876.41;4999691;28;20037;-55
2022/01/14 07:16:51;;;;;;;25.58;18.17;;;;;;;2.87;80.08;101883.22;4999444;28;20133;-55
2022/01/14 07:19:21;;;;;;;25.08;18.38;;;;;;;2.86;80.18;101878.88;5016762;28;20456;-55
2022/01/14 07:21:47;;;;;;;30.70;17.13;;;;;;;2.87;79.88;101880.66;5015551;28;20041;-55
2022/01/14 07:24:15;;;;;;;30.33;18.38;;;;;;;2.87;80.44;101881.53;5016702;28;20097;-55
2022/01/14 07:26:42;;;;;;;31.73;19.92;;;;;;;2.86;79.92;101878.88;5017041;28;20489;-54
2022/01/14 07:29:09;;;;;;;27.00;17.95;;;;;;;2.87;79.81;101888.34;5015447;28;20065;-55
2022/01/14 07:31:35;;;;;;;31.27;18.30;;;;;;;2.86;80.06;101882.31;4998977;28;20617;-54
2022/01/14 07:34:04;;;;;;;29.08;18.58;;;;;;;2.87;80.17;101883.22;5016050;28;20056;-54
2022/01/14 07:36:29;;;;;;;24.35;17.13;;;;;;;2.87;79.78;101890.91;5015973;28;20060;-54
2022/01/14 07:39:00;;;;;;;30.05;18.55;;;;;;;2.85;80.02;101892.44;5016158;28;20489;-55
2022/01/14 07:41:25;;;;;;;32.03;18.40;;;;;;;2.85;80.15;101889.88;4999427;28;20037;-54
2022/01/14 07:43:51;;;;;;;23.45;16.83;;;;;;;2.85;79.91;101893.31;5016418;28;20525;-55
2022/01/14 07:46:16;;;;;;;29.50;16.50;;;;;;;2.85;79.78;101893.31;5016335;28;20034;-55
2022/01/14 07:48:44;;;;;;;27.60;18.00;;;;;;;2.86;80.30;101896.78;5016135;28;20045;-55
2022/01/14 07:51:15;;;;;;;26.63;17.45;;;;;;;2.84;80.00;101882.97;4998461;28;20089;-54
2022/01/14 07:53:46;;;;;;;25.70;18.48;;;;;;;2.85;80.43;101889.88;5015443;28;20040;-55
2022/01/14 07:56:18;;;;;;;30.90;18.60;;;;;;;2.84;80.22;101888.97;4998980;28;20038;-55
2022/01/14 07:58:46;;;;;;;23.02;15.75;;;;;;;2.84;80.06;101891.53;4998595;28;20112;-54
2022/01/14 08:01:16;;;;;;;30.02;18.17;;;;;;;2.85;80.51;101892.44;5014394;28;20040;-55
2022/01/14 08:03:46;;;;;;;26.63;18.75;;;;;;;2.84;80.14;101890.66;5001711;28;20071;-55
2022/01/14 08:06:13;;;;;;;24.42;17.08;;;;;;;2.84;80.19;101886.41;5036265;28;20033;-54
2022/01/14 08:08:41;;;;;;;28.63;17.50;;;;;;;2.84;80.15;101882.97;5035632;28;20120;-54
2022/01/14 08:11:06;;;;;;;28.80;16.00;;;;;;;2.85;79.98;101884.75;5035551;28;20076;-55
2022/01/14 08:13:32;;;;;;;26.70;18.88;;;;;;;2.84;80.03;101890.66;5035592;28;20558;-55
2022/01/14 08:16:01;;;;;;;22.95;16.63;;;;;;;2.83;79.76;101889.75;5034340;28;20480;-55
2022/01/14 08:18:26;;;;;;;32.53;17.52;;;;;;;2.85;79.66;101895.00;5001528;28;20099;-55
2022/01/14 08:20:52;;;;;;;26.67;16.73;;;;;;;2.84;79.74;101895.78;5035296;28;20037;-55
2022/01/14 08:23:21;;;;;;;26.73;16.98;;;;;;;2.84;79.92;101913.72;5035063;28;20033;-55
2022/01/14 08:25:47;;;;;;;28.98;17.50;;;;;;;2.83;80.09;101910.25;5001260;28;20451;-55
2022/01/14 08:28:15;;;;;;;26.85;18.23;;;;;;;2.84;80.22;101898.34;5017720;28;20116;-55
2022/01/14 08:30:40;;;;;;;27.23;17.38;;;;;;;2.85;80.18;101900.13;5034674;28;20503;-55
2022/01/14 08:33:14;;;;;;;25.67;16.80;;;;;;;2.84;80.04;101893.22;5018134;28;20029;-54
2022/01/14 08:35:40;;;;;;;27.20;17.20;;;;;;;2.83;80.15;101894.88;5001525;28;20076;-55
2022/01/14 08:38:11;;;;;;;30.70;18.13;;;;;;;2.84;79.95;101900.91;5001486;28;20037;-54
2022/01/14 08:40:38;;;;;;;27.98;17.00;;;;;;;2.82;80.34;101899.88;5017241;28;20123;-55
2022/01/14 08:43:04;;;;;;;24.48;15.02;;;;;;;2.84;79.95;101906.03;5034995;28;20081;-55
2022/01/14 08:45:30;;;;;;;26.77;15.27;;;;;;;2.83;80.20;101911.94;5017495;28;20534;-55
2022/01/14 08:47:58;;;;;;;24.13;16.45;;;;;;;2.84;80.13;101913.72;5017112;28;20037;-55
2022/01/14 08:50:30;;;;;;;23.95;16.35;;;;;;;2.84;80.10;101913.72;5000709;28;20124;-55
2022/01/14 08:52:56;;;;;;;27.80;16.20;;;;;;;2.84;79.92;101913.72;5001005;28;20037;-55
2022/01/14 08:55:22;;;;;;;24.77;16.23;;;;;;;2.83;79.83;101909.34;5016726;28;20038;-55
2022/01/14 08:57:48;;;;;;;26.63;15.57;;;;;;;2.83;80.22;101910.25;5000521;28;20440;-54
2022/01/14 09:00:22;;;;;;;27.02;16.73;;;;;;;2.81;80.47;101901.53;5034656;28;20496;-55
2022/01/14 09:02:52;;;;;;;27.25;15.77;;;;;;;2.83;80.24;101892.31;5017043;28;20053;-55
2022/01/14 09:05:23;;;;;;;23.88;16.88;;;;;;;2.82;79.84;101889.66;5000584;28;20452;-55
2022/01/14 09:07:49;;;;;;;27.95;16.13;;;;;;;2.82;80.31;101887.97;5000312;28;20075;-54
2022/01/14 09:10:15;;;;;;;22.02;15.63;;;;;;;2.82;79.91;101885.41;5000573;28;20073;-54
2022/01/14 09:12:45;;;;;;;31.90;15.38;;;;;;;2.83;80.38;101883.75;5034288;28;20076;-55
2022/01/14 09:15:15;;;;;;;29.02;17.42;;;;;;;2.82;80.27;101882.84;5000724;28;20037;-55
2022/01/14 09:17:41;;;;;;;25.50;16.05;;;;;;;2.82;80.14;101890.53;5016623;28;20558;-54
2022/01/14 09:20:11;;;;;;;26.83;16.50;;;;;;;2.82;80.51;101889.66;5034008;28;20128;-55
2022/01/14 09:22:42;;;;;;;23.40;15.00;;;;;;;2.82;80.36;101895.66;5000280;28;20041;-54
2022/01/14 09:25:11;;;;;;;23.02;16.25;;;;;;;2.82;80.15;101889.66;5034240;28;20076;-54
2022/01/14 09:27:36;;;;;;;25.95;15.27;;;;;;;2.83;79.74;101894.00;5016453;28;20045;-55
2022/01/14 09:30:04;;;;;;;26.20;15.98;;;;;;;2.82;80.65;101897.34;5016359;28;20037;-54
2022/01/14 09:32:30;;;;;;;25.67;16.88;;;;;;;2.81;80.33;101901.53;4999956;28;20037;-54
2022/01/14 09:34:55;;;;;;;24.83;15.80;;;;;;;2.82;80.32;101900.78;5034080;28;20123;-54
2022/01/14 09:37:21;;;;;;;22.98;16.20;;;;;;;2.81;79.68;101896.41;5034054;28;20069;-55
2022/01/14 09:39:46;;;;;;;27.35;15.85;;;;;;;2.83;80.18;101897.44;5033920;28;20041;-54
2022/01/14 09:42:15;;;;;;;26.25;17.15;;;;;;;2.83;80.06;101901.69;5033727;28;20041;-55
2022/01/14 09:44:45;;;;;;;30.25;15.48;;;;;;;2.83;80.71;101905.13;5016159;28;20515;-55
2022/01/14 09:47:20;;;;;;;29.63;17.15;;;;;;;2.83;79.84;101906.81;5016229;28;20508;-54
2022/01/14 09:49:48;;;;;;;24.02;14.65;;;;;;;2.83;80.25;101909.34;4999703;28;20037;-55
2022/01/14 09:52:16;;;;;;;27.95;18.60;;;;;;;2.84;79.93;101913.72;5033463;28;20033;-55
2022/01/14 09:54:43;;;;;;;25.88;16.25;;;;;;;2.84;80.42;101908.59;4999598;28;20405;-54
2022/01/14 09:57:32;;;;;;;24.50;15.93;;;;;;;2.84;80.19;101903.47;4999660;28;20040;-55
2022/01/14 09:59:57;;;;;;;29.15;17.17;;;;;;;2.84;80.00;101912.03;4995490;28;20080;-55
2022/01/14 10:02:31;;;;;;;25.48;16.25;;;;;;;2.85;80.52;101907.81;4994944;28;20041;-54
2022/01/14 10:05:05;;;;;;;27.05;16.88;;;;;;;2.85;80.55;101908.69;4994792;28;20134;-55
2022/01/14 10:07:33;;;;;;;25.63;15.98;;;;;;;2.85;80.29;101915.50;5011920;28;20061;-56
2022/01/14 10:10:01;;;;;;;24.83;16.73;;;;;;;2.86;79.89;101918.16;4995232;28;20064;-55
2022/01/14 10:12:35;;;;;;;27.95;16.98;;;;;;;2.86;79.99;101912.16;4994901;28;20042;-55
2022/01/14 10:15:11;;;;;;;25.88;17.20;;;;;;;2.88;80.30;101915.75;5011718;28;20062;-55
2022/01/14 10:17:42;;;;;;;27.27;16.27;;;;;;;2.87;80.16;101924.19;4994836;28;20107;-55
2022/01/14 10:20:10;;;;;;;26.65;16.38;;;;;;;2.88;80.50;101928.56;4995234;28;20622;-55
2022/01/14 10:22:49;;;;;;;30.60;17.85;;;;;;;2.88;80.23;101911.50;4995363;28;20045;-56
2022/01/14 10:25:20;;;;;;;29.85;16.80;;;;;;;2.91;80.38;101918.50;5029622;28;20488;-55
2022/01/14 10:27:48;;;;;;;27.52;16.35;;;;;;;2.94;80.23;101907.63;5032845;28;20040;-55
2022/01/14 10:30:24;;;;;;;29.23;18.00;;;;;;;2.95;80.27;101906.84;5015989;28;20448;-55
2022/01/14 10:32:56;;;;;;;25.27;18.38;;;;;;;2.94;80.03;101898.25;4998983;28;20068;-55
2022/01/14 10:35:27;;;;;;;27.85;18.38;;;;;;;2.96;80.38;101894.16;4999659;28;20107;-55
2022/01/14 10:37:59;;;;;;;28.60;16.52;;;;;;;2.98;80.00;101892.59;5015695;28;20033;-54
2022/01/14 10:40:28;;;;;;;33.30;18.10;;;;;;;3.01;79.86;101889.38;5002514;28;20049;-56
2022/01/14 10:43:05;;;;;;;26.98;17.77;;;;;;;3.02;80.22;101873.22;5037273;28;20029;-55
2022/01/14 10:45:33;;;;;;;29.80;17.10;;;;;;;3.04;80.12;101871.69;5003708;28;20088;-54
2022/01/14 10:48:10;;;;;;;28.45;16.33;;;;;;;3.04;79.97;101875.13;5003913;28;20041;-56
2022/01/14 10:50:39;;;;;;;29.15;16.85;;;;;;;3.07;80.24;101883.81;5019181;28;20041;-55
2022/01/14 10:53:08;;;;;;;26.40;17.30;;;;;;;3.08;80.20;101872.81;5018915;28;20087;-55
2022/01/14 10:55:40;;;;;;;23.77;15.90;;;;;;;3.10;80.29;101869.59;5002880;28;20489;-55
2022/01/14 10:58:25;;;;;;;26.70;16.23;;;;;;;3.12;80.67;101868.03;5037220;28;20029;-55
2022/01/14 11:00:55;;;;;;;29.55;16.45;;;;;;;3.15;80.23;101864.81;5036972;28;20029;-55
2022/01/14 11:03:52;;;;;;;26.45;17.30;;;;;;;3.18;80.54;101853.13;5002427;28;20409;-55
2022/01/14 11:06:26;;;;;;;24.77;16.23;;;;;;;3.20;79.87;101848.09;5003296;28;20042;-55
2022/01/14 11:09:02;;;;;;;29.00;16.45;;;;;;;3.23;80.01;101856.00;5019337;28;20103;-55
2022/01/14 11:11:36;;;;;;;27.13;17.98;;;;;;;3.25;79.78;101841.66;5036733;28;20048;-55
2022/01/14 11:14:03;;;;;;;24.65;17.38;;;;;;;3.27;80.68;101844.34;5002983;28;20146;-55
2022/01/14 11:16:29;;;;;;;25.55;16.58;;;;;;;3.29;80.16;101832.50;5036674;28;20040;-55
2022/01/14 11:18:57;;;;;;;25.40;15.70;;;;;;;3.29;80.17;101838.53;5002147;28;20038;-56
2022/01/14 11:24:25;;;;;;;24.50;15.10;;;;;;;3.34;80.16;101826.06;5036126;28;20056;-55
2022/01/14 11:27:11;;;;;;;25.25;18.20;;;;;;;3.35;79.73;101827.84;5036283;28;20409;-55
2022/01/14 11:29:43;;;;;;;23.88;16.23;;;;;;;3.36;79.78;101842.44;5017777;28;20136;-55
2022/01/14 11:32:09;;;;;;;29.25;15.80;;;;;;;3.37;79.97;101831.44;5002046;28;20554;-55
2022/01/14 11:34:48;;;;;;;23.10;15.43;;;;;;;3.39;79.60;101824.75;5036301;28;20041;-56
2022/01/14 11:37:14;;;;;;;31.73;16.98;;;;;;;3.41;79.98;101824.84;5019253;28;20029;-55
2022/01/14 11:39:53;;;;;;;26.00;15.52;;;;;;;3.41;79.89;101820.63;5036150;28;20070;-55
2022/01/14 11:42:18;;;;;;;30.52;16.73;;;;;;;3.44;79.97;101835.34;5001909;28;20492;-55
2022/01/14 11:44:44;;;;;;;22.08;15.98;;;;;;;3.43;80.36;101830.97;5018266;28;20044;-55
2022/01/14 11:47:25;;;;;;;26.00;15.30;;;;;;;3.44;80.47;101837.91;5018447;28;20036;-56
2022/01/14 11:49:56;;;;;;;24.70;15.50;;;;;;;3.44;79.55;101827.63;5018937;28;20052;-55
2022/01/14 11:52:44;;;;;;;25.13;16.50;;;;;;;3.43;80.13;101829.28;5002407;28;20447;-55